Time;durP1;ratioP1;P1;durP2;ratioP2;P2;SDS_P1;SDS_P2;PMS_P1;PMS_P2;Temp;Humidity;BMP_temperature;BMP_pressure;BME280_temperature;BME280_humidity;BME280_pressure;Samples;Min_cycle;Max_cycle;Signal;HPM_P1;HPM_P2
2023/08/24 00:01:16;;;;;;;0.70;0.40;;;;;;;25.33;59.05;95432.97;5132720;27;20940;-53
2023/08/24 00:03:47;;;;;;;0.53;0.53;;;;;;;24.92;60.31;95434.53;5132633;27;20513;-53
2023/08/24 00:06:16;;;;;;;0.50;0.40;;;;;;;25.10;60.01;95437.56;5132150;27;20487;-54
2023/08/24 00:08:44;;;;;;;0.40;0.30;;;;;;;25.12;60.46;95440.75;5132464;27;20870;-54
2023/08/24 00:11:14;;;;;;;1.63;0.40;;;;;;;25.15;60.16;95432.66;5132215;27;20432;-54
2023/08/24 00:13:48;;;;;;;0.70;0.40;;;;;;;25.11;60.46;95425.59;5132320;27;20435;-53
2023/08/24 00:16:17;;;;;;;0.60;0.57;;;;;;;25.21;60.22;95423.09;5132509;27;20535;-53
2023/08/24 00:18:47;;;;;;;0.60;0.40;;;;;;;25.27;59.83;95420.09;5132879;27;20484;-54
2023/08/24 00:21:17;;;;;;;0.63;0.63;;;;;;;25.19;59.17;95405.59;5132572;27;21090;-54
2023/08/24 00:23:45;;;;;;;0.47;0.30;;;;;;;25.29;58.60;95409.66;5119126;27;20469;-54
2023/08/24 00:26:16;;;;;;;0.50;0.30;;;;;;;25.23;59.53;95415.38;5131711;27;20438;-53
2023/08/24 00:28:45;;;;;;;1.37;0.50;;;;;;;24.66;59.82;95325.16;5130211;27;20505;-54
2023/08/24 00:31:16;;;;;;;0.70;0.30;;;;;;;25.18;59.55;95409.44;5132391;27;20483;-54
2023/08/24 00:33:46;;;;;;;0.50;0.43;;;;;;;25.13;59.96;95412.44;5131909;27;20498;-54
2023/08/24 00:36:15;;;;;;;0.40;0.30;;;;;;;25.21;58.10;95408.75;5132495;28;20498;-54
2023/08/24 00:38:43;;;;;;;0.40;0.40;;;;;;;24.88;59.80;95403.84;5132449;28;20427;-54
2023/08/24 00:41:13;;;;;;;0.50;0.40;;;;;;;25.04;60.19;95407.28;5131602;28;20956;-54
2023/08/24 00:43:42;;;;;;;0.80;0.80;;;;;;;25.07;59.41;95417.38;5132073;28;20487;-54
2023/08/24 00:46:10;;;;;;;1.03;0.80;;;;;;;24.83;60.25;95423.13;5132369;28;20434;-54
2023/08/24 00:48:39;;;;;;;1.90;0.50;;;;;;;25.04;58.32;95418.13;5120635;28;20439;-54
2023/08/24 00:51:09;;;;;;;0.70;0.60;;;;;;;25.07;59.50;95419.34;5123786;28;21044;-54
2023/08/24 00:53:38;;;;;;;0.60;0.50;;;;;;;24.91;60.06;95422.13;5104816;28;20439;-54
2023/08/24 00:56:07;;;;;;;0.50;0.30;;;;;;;24.91;59.68;95430.25;5131418;28;21064;-54
2023/08/24 00:58:35;;;;;;;0.40;0.40;;;;;;;24.53;60.45;95376.00;5132476;28;20833;-54
2023/08/24 01:01:04;;;;;;;0.97;0.50;;;;;;;24.88;60.69;95420.13;5131999;28;20549;-54
2023/08/24 01:03:34;;;;;;;0.70;0.33;;;;;;;25.00;60.47;95424.59;5132633;28;20434;-54
2023/08/24 01:06:03;;;;;;;0.80;0.80;;;;;;;24.85;61.11;95425.47;5132215;28;20497;-54
2023/08/24 01:08:32;;;;;;;0.90;0.70;;;;;;;24.68;61.73;95426.66;5132359;28;20474;-54
2023/08/24 01:11:09;;;;;;;0.90;0.67;;;;;;;24.54;62.31;95424.41;5132096;28;20431;-54
2023/08/24 01:13:47;;;;;;;0.70;0.60;;;;;;;24.05;64.47;95434.13;5131998;28;20430;-54
2023/08/24 01:16:20;;;;;;;1.33;1.23;;;;;;;23.50;68.45;95427.00;5130790;28;20527;-54
2023/08/24 01:18:49;;;;;;;0.83;0.83;;;;;;;23.35;71.61;95430.44;5130772;28;20944;-53
2023/08/24 01:21:18;;;;;;;0.70;0.57;;;;;;;23.87;68.47;95420.19;5119499;28;20530;-54
2023/08/24 01:24:00;;;;;;;0.70;0.57;;;;;;;24.16;66.83;95421.63;5132009;28;20439;-53
2023/08/24 01:26:30;;;;;;;0.50;0.30;;;;;;;24.14;65.36;95375.16;5131822;28;20431;-54
2023/08/24 01:28:59;;;;;;;0.80;0.50;;;;;;;24.34;65.86;95416.59;5131380;28;20434;-54
2023/08/24 01:31:29;;;;;;;1.03;1.03;;;;;;;24.07;65.42;95368.78;5131498;28;20511;-53
2023/08/24 01:33:58;;;;;;;0.60;0.40;;;;;;;24.51;64.65;95411.59;5132274;28;20521;-53
2023/08/24 01:36:26;;;;;;;0.50;0.47;;;;;;;24.50;64.43;95403.81;5131788;28;20474;-53
2023/08/24 01:39:06;;;;;;;0.60;0.43;;;;;;;24.34;65.24;95403.06;5131479;28;20470;-53
2023/08/24 01:41:38;;;;;;;0.63;0.57;;;;;;;24.12;66.46;95411.88;5131409;28;20435;-53
2023/08/24 01:44:09;;;;;;;1.20;1.10;;;;;;;24.18;66.51;95415.88;5131293;28;20442;-53
2023/08/24 01:46:43;;;;;;;0.50;0.43;;;;;;;24.20;66.59;95410.88;5133134;27;20435;-53
2023/08/24 01:49:15;;;;;;;0.57;0.30;;;;;;;24.20;65.98;95408.19;5135059;27;20799;-53
2023/08/24 01:51:44;;;;;;;0.60;0.43;;;;;;;23.90;66.38;95370.75;5134349;27;20439;-53
2023/08/24 01:54:13;;;;;;;4.20;0.40;;;;;;;23.92;65.99;95362.25;5135089;27;20443;-53
2023/08/24 01:56:43;;;;;;;0.50;0.40;;;;;;;24.28;65.12;95413.41;5134610;27;20543;-53
2023/08/24 01:59:12;;;;;;;0.70;0.50;;;;;;;24.24;64.51;95414.44;5135285;27;20466;-53
2023/08/24 02:01:40;;;;;;;0.87;0.50;;;;;;;24.39;64.40;95413.63;5134542;27;20443;-53
2023/08/24 02:04:08;;;;;;;0.50;0.40;;;;;;;24.28;64.26;95410.69;5134395;27;20500;-54
2023/08/24 02:06:37;;;;;;;1.67;0.87;;;;;;;24.35;64.62;95418.19;5107663;27;20488;-53
2023/08/24 02:09:05;;;;;;;0.80;0.80;;;;;;;24.32;65.22;95402.63;5134515;27;20491;-53
2023/08/24 02:11:33;;;;;;;1.00;0.90;;;;;;;24.39;63.47;95406.28;5133840;27;20441;-53
2023/08/24 02:14:03;;;;;;;1.03;0.40;;;;;;;24.18;63.24;95389.59;5134926;27;20465;-53
2023/08/24 02:16:31;;;;;;;0.67;0.40;;;;;;;24.38;62.74;95406.66;5134597;27;20483;-53
2023/08/24 02:19:00;;;;;;;0.40;0.30;;;;;;;24.47;63.78;95407.22;5134617;27;20431;-53
2023/08/24 02:21:28;;;;;;;0.40;0.30;;;;;;;24.41;62.91;95384.28;5134226;27;20987;-53
2023/08/24 02:23:56;;;;;;;0.90;0.63;;;;;;;24.34;62.53;95400.34;5134183;27;20467;-53
2023/08/24 02:26:25;;;;;;;0.70;0.40;;;;;;;24.44;62.51;95410.63;5134388;27;20464;-53
2023/08/24 02:28:53;;;;;;;0.83;0.83;;;;;;;24.53;62.83;95412.03;5134002;27;20533;-53
2023/08/24 02:31:23;;;;;;;0.53;0.40;;;;;;;24.70;62.58;95413.53;5134413;27;20459;-53
2023/08/24 02:33:51;;;;;;;1.30;1.20;;;;;;;23.89;64.43;95412.47;5134055;27;20431;-53
2023/08/24 02:36:19;;;;;;;0.63;0.60;;;;;;;24.15;64.33;95411.16;5134573;27;20471;-53
2023/08/24 02:38:49;;;;;;;0.60;0.50;;;;;;;24.11;64.52;95416.47;5125686;27;20457;-53
2023/08/24 02:41:17;;;;;;;0.50;0.30;;;;;;;24.09;64.87;95428.81;5133838;27;20438;-53
2023/08/24 02:43:45;;;;;;;1.17;0.70;;;;;;;24.27;64.53;95421.88;5133624;27;20435;-53
2023/08/24 02:46:14;;;;;;;0.70;0.70;;;;;;;24.34;63.92;95427.44;5134811;27;20846;-53
2023/08/24 02:48:44;;;;;;;0.77;0.77;;;;;;;24.22;64.58;95424.84;5134323;27;20442;-53
2023/08/24 02:51:13;;;;;;;0.50;0.40;;;;;;;24.16;65.08;95434.41;5133353;27;20889;-54
2023/08/24 02:53:41;;;;;;;0.80;0.70;;;;;;;24.20;64.97;95430.63;5134004;27;20450;-54
2023/08/24 02:56:09;;;;;;;1.60;1.50;;;;;;;24.16;64.78;95434.41;5133240;27;20565;-54
2023/08/24 02:58:37;;;;;;;1.17;1.07;;;;;;;23.96;66.17;95437.00;5132571;27;20456;-54
2023/08/24 03:01:07;;;;;;;0.50;0.40;;;;;;;23.87;65.89;95425.59;5134048;27;20431;-54
2023/08/24 03:03:36;;;;;;;0.90;0.90;;;;;;;23.77;66.04;95411.78;5133631;27;20441;-54
2023/08/24 03:06:08;;;;;;;1.10;0.97;;;;;;;23.56;69.08;95427.50;5134027;27;20549;-54
2023/08/24 03:08:37;;;;;;;0.63;0.60;;;;;;;23.32;70.79;95426.50;5133514;27;21003;-54
2023/08/24 03:11:05;;;;;;;0.57;0.40;;;;;;;23.44;69.67;95436.50;5133096;27;20547;-54
2023/08/24 03:13:38;;;;;;;0.70;0.50;;;;;;;23.55;68.67;95431.34;5133338;27;20443;-53
2023/08/24 03:16:07;;;;;;;0.50;0.50;;;;;;;23.61;67.15;95430.75;5118536;27;20470;-53
2023/08/24 03:18:36;;;;;;;1.10;0.70;;;;;;;23.40;68.45;95422.09;5133405;27;20952;-53
2023/08/24 03:21:06;;;;;;;3.80;0.60;;;;;;;23.38;67.25;95437.88;5133040;27;20439;-54
2023/08/24 03:23:34;;;;;;;0.50;0.40;;;;;;;23.60;67.35;95433.81;5133291;27;20431;-53
2023/08/24 03:26:03;;;;;;;0.70;0.70;;;;;;;23.68;65.59;95438.25;5133419;27;20492;-54
2023/08/24 03:28:31;;;;;;;0.60;0.50;;;;;;;23.68;65.55;95438.25;5133070;27;20439;-53
2023/08/24 03:31:01;;;;;;;0.70;0.60;;;;;;;23.72;65.46;95436.41;5133797;27;20465;-54
2023/08/24 03:33:30;;;;;;;0.50;0.30;;;;;;;23.74;65.54;95451.19;5133009;27;20914;-54
2023/08/24 03:35:59;;;;;;;0.50;0.40;;;;;;;23.84;65.54;95445.22;5132981;27;20442;-54
2023/08/24 03:38:28;;;;;;;0.70;0.43;;;;;;;23.45;65.27;95366.94;5133067;27;21043;-54
2023/08/24 03:41:02;;;;;;;0.70;0.50;;;;;;;23.92;64.01;95441.56;5132049;27;20435;-54
2023/08/24 03:43:32;;;;;;;0.70;0.60;;;;;;;23.71;65.84;95445.66;5132950;27;20525;-54
2023/08/24 03:46:01;;;;;;;0.60;0.60;;;;;;;23.69;66.08;95445.22;5126615;27;20447;-54
2023/08/24 03:48:30;;;;;;;0.80;0.80;;;;;;;23.54;64.28;95446.81;5128753;27;20441;-54
2023/08/24 03:50:58;;;;;;;0.60;0.50;;;;;;;22.76;64.96;95346.59;5133217;27;20431;-54
2023/08/24 03:53:28;;;;;;;0.80;0.60;;;;;;;23.20;66.51;95417.66;5132733;27;20450;-54
2023/08/24 03:55:56;;;;;;;0.43;0.30;;;;;;;23.52;65.24;95437.47;5122700;27;20475;-54
2023/08/24 03:58:25;;;;;;;0.60;0.50;;;;;;;23.42;65.84;95406.31;5112121;28;20555;-54
2023/08/24 04:00:54;;;;;;;0.57;0.40;;;;;;;23.74;65.27;95443.06;5112014;28;20473;-54
2023/08/24 04:03:22;;;;;;;0.87;0.57;;;;;;;23.85;64.62;95454.16;5086161;28;20462;-54
2023/08/24 04:05:51;;;;;;;0.50;0.40;;;;;;;23.90;64.89;95440.34;5112079;28;20471;-54
2023/08/24 04:08:19;;;;;;;0.50;0.30;;;;;;;24.02;63.64;95451.88;5112328;28;20481;-54
2023/08/24 04:10:49;;;;;;;0.40;0.30;;;;;;;24.19;63.24;95453.44;5111783;28;20436;-54
2023/08/24 04:13:17;;;;;;;0.50;0.50;;;;;;;24.29;62.19;95449.38;5103217;28;20443;-55
2023/08/24 04:15:45;;;;;;;0.40;0.30;;;;;;;24.30;63.13;95459.09;5106887;28;20439;-54
2023/08/24 04:18:14;;;;;;;0.73;0.73;;;;;;;24.34;62.03;95466.16;5111770;28;20498;-54
2023/08/24 04:20:42;;;;;;;0.60;0.60;;;;;;;23.72;63.53;95468.91;5111816;28;20496;-54
2023/08/24 04:23:11;;;;;;;0.50;0.50;;;;;;;23.50;65.18;95473.00;5112328;28;20440;-54
2023/08/24 04:25:41;;;;;;;0.80;0.80;;;;;;;23.45;66.65;95478.66;5111956;28;20535;-54
2023/08/24 04:28:11;;;;;;;1.00;0.97;;;;;;;22.88;69.87;95483.59;5111717;28;20436;-54
2023/08/24 04:30:39;;;;;;;3.13;1.37;;;;;;;22.71;72.56;95485.47;5097806;28;20492;-54
2023/08/24 04:33:08;;;;;;;2.30;0.83;;;;;;;22.96;72.19;95483.47;5111989;28;20436;-54
2023/08/24 04:35:36;;;;;;;1.73;0.60;;;;;;;23.19;71.08;95475.59;5110096;28;20519;-54
2023/08/24 04:38:05;;;;;;;1.23;1.13;;;;;;;23.45;69.75;95467.84;5111222;28;20529;-54
2023/08/24 04:40:45;;;;;;;0.60;0.40;;;;;;;23.76;67.91;95464.34;5111411;28;20488;-54
2023/08/24 04:43:15;;;;;;;0.60;0.37;;;;;;;23.81;67.48;95458.66;5111398;28;20794;-54
2023/08/24 04:45:43;;;;;;;0.53;0.47;;;;;;;23.98;66.87;95459.09;5111734;28;20473;-53
2023/08/24 04:48:12;;;;;;;3.03;2.83;;;;;;;24.13;66.45;95468.41;5111308;28;20439;-53
2023/08/24 04:50:40;;;;;;;0.50;0.50;;;;;;;24.29;65.58;95469.16;5111612;28;20436;-54
2023/08/24 04:53:08;;;;;;;0.93;0.80;;;;;;;24.36;65.04;95468.53;5110855;28;20797;-54
2023/08/24 04:55:37;;;;;;;0.60;0.37;;;;;;;24.43;63.72;95465.97;5115006;28;20514;-54
2023/08/24 04:58:05;;;;;;;0.60;0.40;;;;;;;24.23;64.66;95458.94;5127091;28;20479;-53
2023/08/24 05:00:35;;;;;;;2.30;2.10;;;;;;;23.72;67.73;95474.31;5123078;28;20534;-54
2023/08/24 05:03:04;;;;;;;2.47;2.37;;;;;;;23.55;68.69;95486.25;5131772;28;20443;-53
2023/08/24 05:05:34;;;;;;;1.93;1.33;;;;;;;23.50;70.11;95477.59;5131509;28;20535;-53
2023/08/24 05:08:06;;;;;;;1.63;1.43;;;;;;;23.62;71.24;95472.91;5131314;28;20439;-54
2023/08/24 05:10:36;;;;;;;1.40;1.30;;;;;;;23.39;72.14;95480.03;5131305;28;20441;-56
2023/08/24 05:13:05;;;;;;;1.70;1.60;;;;;;;23.11;72.79;95466.50;5131804;28;20460;-53
2023/08/24 05:15:37;;;;;;;0.80;0.80;;;;;;;22.96;73.94;95456.41;5131514;28;20522;-53
2023/08/24 05:18:05;;;;;;;1.13;1.00;;;;;;;23.42;72.58;95465.81;5131904;28;20561;-54
2023/08/24 05:20:34;;;;;;;0.87;0.87;;;;;;;23.92;70.98;95470.56;5131646;27;20438;-53
2023/08/24 05:23:02;;;;;;;0.90;0.80;;;;;;;23.57;73.95;95465.06;5135668;27;20940;-53
2023/08/24 05:25:30;;;;;;;0.93;0.90;;;;;;;23.87;73.08;95465.41;5135408;27;20443;-54
2023/08/24 05:27:59;;;;;;;1.00;0.80;;;;;;;23.31;74.21;95464.72;5135516;27;20781;-53
2023/08/24 05:30:29;;;;;;;1.10;1.00;;;;;;;23.26;74.66;95475.78;5135467;27;20517;-53
2023/08/24 05:32:59;;;;;;;1.90;1.80;;;;;;;23.05;76.01;95443.53;5135151;27;20434;-53
2023/08/24 05:35:27;;;;;;;1.17;1.07;;;;;;;23.02;75.35;95475.91;5135109;27;20499;-53
2023/08/24 05:37:55;;;;;;;2.07;1.97;;;;;;;23.14;77.52;95478.53;5134807;27;20470;-52
2023/08/24 05:40:24;;;;;;;2.47;2.27;;;;;;;23.28;75.73;95478.91;5135135;27;20483;-52
2023/08/24 05:42:53;;;;;;;1.07;0.97;;;;;;;23.49;75.06;95482.22;5134812;27;20434;-52
2023/08/24 05:45:22;;;;;;;2.47;1.37;;;;;;;23.19;76.74;95486.41;5135010;27;21002;-52
2023/08/24 05:47:53;;;;;;;1.03;0.50;;;;;;;23.38;75.04;95486.56;5135295;27;20438;-52
2023/08/24 05:50:23;;;;;;;1.50;1.40;;;;;;;23.63;72.27;95487.25;5135124;27;20495;-53
2023/08/24 05:52:52;;;;;;;0.93;0.93;;;;;;;24.25;69.20;95478.34;5134452;27;20438;-53
2023/08/24 05:55:20;;;;;;;0.70;0.50;;;;;;;24.67;67.52;95482.00;5134897;27;20527;-51
2023/08/24 05:57:48;;;;;;;0.87;0.87;;;;;;;24.74;65.85;95476.75;5133987;27;20555;-53
2023/08/24 06:00:18;;;;;;;3.13;0.97;;;;;;;25.02;64.37;95468.44;5134668;27;20443;-54
2023/08/24 06:02:46;;;;;;;1.77;1.03;;;;;;;25.07;61.63;95435.59;5134820;27;20468;-53
2023/08/24 06:05:17;;;;;;;0.73;0.70;;;;;;;25.72;61.15;95469.00;5134440;27;20474;-52
2023/08/24 06:07:47;;;;;;;0.73;0.60;;;;;;;25.74;60.28;95450.41;5134476;27;20439;-53
2023/08/24 06:10:16;;;;;;;0.57;0.30;;;;;;;26.13;59.63;95462.75;5134830;27;20513;-53
2023/08/24 06:12:44;;;;;;;0.50;0.50;;;;;;;26.24;58.38;95422.13;5134473;27;20439;-53
2023/08/24 06:15:13;;;;;;;1.77;1.47;;;;;;;26.41;58.21;95449.56;5134548;27;20439;-54
2023/08/24 06:17:43;;;;;;;1.10;0.60;;;;;;;25.82;58.70;95344.28;5134454;27;20483;-54
2023/08/24 06:20:13;;;;;;;1.23;0.80;;;;;;;26.36;58.51;95438.25;5134204;27;20526;-52
2023/08/24 06:22:42;;;;;;;1.63;1.53;;;;;;;26.39;58.20;95462.75;5134374;27;20497;-59
2023/08/24 06:25:12;;;;;;;5.30;1.87;;;;;;;26.38;58.62;95458.47;5134398;27;20441;-53
2023/08/24 06:27:41;;;;;;;1.00;0.70;;;;;;;27.08;56.85;95452.41;5134331;27;20439;-54
2023/08/24 06:30:10;;;;;;;3.63;1.40;;;;;;;26.78;56.77;95410.84;5134307;27;20442;-54
2023/08/24 06:32:40;;;;;;;0.70;0.50;;;;;;;27.75;55.71;95461.34;5133906;27;20438;-54
2023/08/24 06:35:09;;;;;;;0.70;0.50;;;;;;;28.42;53.77;95458.38;5134276;27;20823;-54
2023/08/24 06:37:37;;;;;;;1.30;1.20;;;;;;;28.08;53.87;95435.97;5134603;27;20435;-57
2023/08/24 06:40:09;;;;;;;0.80;0.80;;;;;;;28.29;53.68;95457.91;5134164;27;20431;-54
2023/08/24 06:42:38;;;;;;;0.70;0.70;;;;;;;28.58;52.72;95456.94;5134669;27;20442;-54
2023/08/24 06:45:09;;;;;;;0.50;0.47;;;;;;;29.04;52.03;95453.69;5133610;27;20507;-57
2023/08/24 06:47:38;;;;;;;4.10;1.13;;;;;;;28.17;53.20;95458.22;5133953;27;20956;-56
2023/08/24 06:50:07;;;;;;;2.73;1.13;;;;;;;26.61;54.50;95338.00;5133088;27;20427;-56
2023/08/24 06:52:36;;;;;;;1.90;1.67;;;;;;;26.65;57.51;95453.78;5134273;27;20445;-55
2023/08/24 06:55:06;;;;;;;1.60;1.50;;;;;;;26.23;58.04;95445.03;5133657;27;20453;-57
2023/08/24 06:57:35;;;;;;;3.73;1.63;;;;;;;25.99;59.14;95450.81;5133200;27;20503;-56
2023/08/24 07:00:08;;;;;;;2.63;2.43;;;;;;;25.57;60.41;95435.41;5133499;27;20513;-55
2023/08/24 07:02:37;;;;;;;2.70;1.23;;;;;;;25.71;60.20;95453.84;5133296;27;20434;-55
2023/08/24 07:05:09;;;;;;;1.27;1.20;;;;;;;25.89;59.96;95457.66;5133698;27;21122;-56
2023/08/24 07:07:37;;;;;;;1.07;0.53;;;;;;;26.22;59.85;95449.69;5133738;27;20442;-52
2023/08/24 07:10:07;;;;;;;1.40;1.30;;;;;;;26.28;57.99;95442.00;5133823;27;20496;-54
2023/08/24 07:12:36;;;;;;;6.83;1.00;;;;;;;26.38;58.42;95453.03;5133156;27;20434;-55
2023/08/24 07:15:07;;;;;;;1.33;1.23;;;;;;;26.31;57.82;95449.44;5132691;27;20495;-54
2023/08/24 07:17:35;;;;;;;0.53;0.53;;;;;;;26.68;56.54;95435.94;5133023;27;20476;-54
2023/08/24 07:20:05;;;;;;;0.70;0.70;;;;;;;26.98;55.70;95448.41;5133115;27;20839;-55
2023/08/24 07:22:34;;;;;;;0.63;0.50;;;;;;;27.02;56.06;95449.22;5133449;27;20944;-55
2023/08/24 07:25:04;;;;;;;0.70;0.70;;;;;;;27.30;55.52;95445.28;5133562;27;20868;-55
2023/08/24 07:27:33;;;;;;;5.00;0.80;;;;;;;27.06;56.01;95427.53;5106220;27;20553;-55
2023/08/24 07:30:03;;;;;;;0.47;0.40;;;;;;;27.52;54.89;95441.66;5132365;27;20942;-54
2023/08/24 07:32:43;;;;;;;5.90;1.10;;;;;;;27.14;57.08;95407.41;5132869;27;20495;-54
2023/08/24 07:35:12;;;;;;;0.87;0.87;;;;;;;27.69;54.37;95439.09;5132323;27;20419;-54
2023/08/24 07:37:40;;;;;;;0.60;0.60;;;;;;;27.52;54.01;95404.31;5132746;27;20933;-54
2023/08/24 07:40:10;;;;;;;1.93;1.17;;;;;;;27.96;53.92;95431.53;5132752;27;20864;-53
2023/08/24 07:42:45;;;;;;;2.80;1.47;;;;;;;28.47;53.58;95428.81;5132909;27;20442;-54
2023/08/24 07:45:14;;;;;;;0.80;0.80;;;;;;;29.00;52.01;95393.63;5131723;27;20437;-53
2023/08/24 07:47:44;;;;;;;0.50;0.43;;;;;;;30.08;49.12;95394.97;5132339;27;20438;-54
2023/08/24 07:50:13;;;;;;;4.70;0.83;;;;;;;30.56;49.49;95405.50;5132374;27;20439;-54
2023/08/24 07:52:42;;;;;;;1.47;1.37;;;;;;;31.11;48.21;95398.28;5132459;27;20434;-55
2023/08/24 07:55:10;;;;;;;1.13;1.00;;;;;;;31.67;46.05;95393.66;5132396;27;20435;-54
2023/08/24 07:57:38;;;;;;;1.17;0.90;;;;;;;32.66;43.78;95390.06;5132752;27;20446;-55
2023/08/24 08:00:09;;;;;;;1.13;1.03;;;;;;;32.83;42.28;95392.63;5105455;27;20474;-55
2023/08/24 08:02:38;;;;;;;0.50;0.50;;;;;;;33.16;41.56;95331.41;5131820;27;20443;-55
2023/08/24 08:05:10;;;;;;;1.30;1.20;;;;;;;33.69;41.96;95387.56;5133002;27;20434;-55
2023/08/24 08:07:39;;;;;;;1.00;0.87;;;;;;;33.37;42.63;95377.00;5132329;27;20437;-55
2023/08/24 08:10:08;;;;;;;0.73;0.67;;;;;;;33.75;42.25;95336.44;5132974;27;20438;-56
2023/08/24 08:12:37;;;;;;;0.93;0.93;;;;;;;33.94;42.25;95348.69;5133198;27;20478;-55
2023/08/24 08:15:06;;;;;;;0.97;0.97;;;;;;;34.36;40.45;95375.47;5132889;27;20532;-55
2023/08/24 08:17:34;;;;;;;0.73;0.73;;;;;;;34.42;41.21;95380.06;5131540;27;20530;-54
2023/08/24 08:20:03;;;;;;;0.80;0.80;;;;;;;32.85;43.78;95378.47;5132185;27;20605;-55
2023/08/24 08:22:35;;;;;;;1.03;1.03;;;;;;;33.09;43.55;95358.94;5132164;27;20434;-54
2023/08/24 08:25:04;;;;;;;1.40;1.30;;;;;;;32.94;43.42;95367.78;5132891;27;20521;-55
2023/08/24 08:27:32;;;;;;;0.87;0.87;;;;;;;33.49;42.58;95368.22;5132705;27;20473;-55
2023/08/24 08:30:01;;;;;;;8.63;1.53;;;;;;;32.97;41.82;95369.69;5132526;27;20438;-54
2023/08/24 08:32:30;;;;;;;1.30;1.30;;;;;;;33.41;40.89;95317.28;5132534;27;20506;-55
2023/08/24 08:35:00;;;;;;;6.00;0.50;;;;;;;33.36;40.35;95353.50;5131775;28;20441;-55
2023/08/24 08:37:28;;;;;;;1.67;1.57;;;;;;;33.42;39.38;95368.28;5132415;28;20529;-55
2023/08/24 08:39:58;;;;;;;0.70;0.70;;;;;;;33.14;39.42;95360.47;5131823;28;20473;-55
2023/08/24 08:42:26;;;;;;;2.97;0.70;;;;;;;33.30;40.90;95370.84;5132403;28;20476;-55
2023/08/24 08:44:55;;;;;;;1.43;1.33;;;;;;;32.30;41.47;95376.69;5131984;28;20437;-55
2023/08/24 08:47:24;;;;;;;2.37;0.83;;;;;;;32.50;42.37;95374.13;5132469;28;21069;-55
2023/08/24 08:49:56;;;;;;;0.50;0.50;;;;;;;31.77;42.79;95346.22;5131422;28;20442;-56
2023/08/24 08:52:25;;;;;;;0.57;0.57;;;;;;;32.03;43.96;95394.19;5132605;28;21027;-57
2023/08/24 08:54:53;;;;;;;1.33;0.63;;;;;;;31.72;44.52;95402.25;5132287;27;20437;-58
2023/08/24 08:57:26;;;;;;;0.63;0.53;;;;;;;31.31;45.13;95428.69;5136058;27;20473;-58
2023/08/24 08:59:55;;;;;;;0.70;0.70;;;;;;;31.22;44.92;95445.53;5136399;27;20539;-59
2023/08/24 09:02:25;;;;;;;0.50;0.40;;;;;;;30.87;46.12;95456.59;5136395;27;20434;-55
2023/08/24 09:04:53;;;;;;;0.40;0.37;;;;;;;30.74;46.89;95458.97;5135816;27;20434;-61
2023/08/24 09:07:22;;;;;;;0.50;0.50;;;;;;;29.97;49.04;95437.97;5136514;27;20909;-54
2023/08/24 09:09:50;;;;;;;3.10;0.60;;;;;;;30.09;47.92;95451.22;5108655;27;20438;-54
2023/08/24 09:12:19;;;;;;;1.30;0.80;;;;;;;29.37;49.38;95437.81;5135790;27;20437;-53
2023/08/24 09:14:48;;;;;;;1.30;1.20;;;;;;;28.93;48.92;95413.50;5135232;27;20461;-54
2023/08/24 09:17:23;;;;;;;0.93;0.80;;;;;;;29.09;50.55;95432.28;5135991;27;20936;-55
2023/08/24 09:19:52;;;;;;;2.50;0.40;;;;;;;28.97;51.94;95429.09;5135945;27;20873;-54
2023/08/24 09:22:20;;;;;;;1.00;0.90;;;;;;;28.68;53.06;95426.25;5135532;27;20476;-54
2023/08/24 09:24:51;;;;;;;1.43;0.93;;;;;;;28.06;54.57;95419.97;5135845;27;20482;-53
2023/08/24 09:27:21;;;;;;;0.90;0.90;;;;;;;27.60;56.79;95356.16;5122213;27;20430;-55
2023/08/24 09:29:51;;;;;;;0.93;0.87;;;;;;;27.39;58.65;95359.47;5135740;27;20438;-54
2023/08/24 09:32:23;;;;;;;1.07;1.07;;;;;;;27.37;72.44;95397.16;5135042;27;20445;-56
2023/08/24 09:34:52;;;;;;;0.60;0.53;;;;;;;27.45;76.83;95390.63;5135537;27;20434;-55
2023/08/24 09:37:20;;;;;;;0.70;0.63;;;;;;;26.76;75.71;95385.94;5135613;27;20533;-55
2023/08/24 09:39:49;;;;;;;1.17;1.07;;;;;;;26.67;77.49;95380.00;5134679;27;20991;-55
2023/08/24 09:42:26;;;;;;;1.77;1.67;;;;;;;26.83;81.33;95375.19;5134974;27;20449;-55
2023/08/24 09:45:05;;;;;;;0.80;0.80;;;;;;;27.09;77.37;95369.66;5134462;27;20446;-54
2023/08/24 09:47:33;;;;;;;0.50;0.40;;;;;;;27.56;76.42;95368.94;5135411;27;20433;-54
2023/08/24 09:50:02;;;;;;;0.60;0.53;;;;;;;27.67;73.64;95378.78;5134171;27;20441;-55
2023/08/24 09:52:33;;;;;;;0.70;0.60;;;;;;;27.79;76.98;95387.81;5135491;27;20438;-54
2023/08/24 09:55:05;;;;;;;0.50;0.50;;;;;;;28.00;72.94;95398.88;5121804;27;20438;-54
2023/08/24 09:57:38;;;;;;;1.30;0.93;;;;;;;28.06;69.78;95394.66;5135242;27;20477;-54
2023/08/24 10:00:11;;;;;;;0.90;0.90;;;;;;;28.23;68.00;95380.38;5135258;27;20462;-55
2023/08/24 10:02:50;;;;;;;1.17;1.10;;;;;;;29.20;68.26;95405.81;5135081;27;20885;-54
2023/08/24 10:05:22;;;;;;;4.40;0.97;;;;;;;30.68;61.93;95400.38;5135130;27;20434;-55
2023/08/24 10:07:54;;;;;;;0.47;0.40;;;;;;;31.92;56.36;95405.22;5133691;27;20470;-53
2023/08/24 10:10:27;;;;;;;0.80;0.80;;;;;;;33.66;50.83;95400.19;5134725;27;20469;-53
2023/08/24 10:13:00;;;;;;;0.70;0.70;;;;;;;34.25;46.64;95400.44;5134939;27;20442;-53
2023/08/24 10:15:30;;;;;;;1.10;0.93;;;;;;;34.66;48.15;95396.59;5134206;27;20474;-53
2023/08/24 10:18:01;;;;;;;0.70;0.67;;;;;;;33.83;50.72;95374.38;5109157;27;20498;-53
2023/08/24 10:20:30;;;;;;;0.70;0.70;;;;;;;33.45;51.57;95389.47;5134066;27;20462;-55
2023/08/24 10:23:00;;;;;;;0.63;0.60;;;;;;;33.11;54.20;95408.78;5135002;27;20438;-55
2023/08/24 10:25:33;;;;;;;0.73;0.73;;;;;;;32.15;56.19;95404.66;5133461;27;20434;-54
2023/08/24 10:28:02;;;;;;;0.60;0.50;;;;;;;31.68;56.54;95397.94;5134450;27;20951;-55
2023/08/24 10:30:33;;;;;;;0.60;0.60;;;;;;;31.62;56.99;95403.09;5134463;27;20954;-55
2023/08/24 10:33:02;;;;;;;1.73;0.70;;;;;;;31.88;56.37;95401.72;5134388;27;20469;-55
2023/08/24 10:35:30;;;;;;;1.33;0.67;;;;;;;31.38;57.27;95393.81;5133689;27;20487;-57
2023/08/24 10:37:59;;;;;;;3.37;1.67;;;;;;;30.74;59.49;95398.78;5134275;27;20434;-56
2023/08/24 10:40:35;;;;;;;0.90;0.90;;;;;;;30.35;58.40;95420.00;5134268;27;20466;-56
2023/08/24 10:43:07;;;;;;;1.10;1.10;;;;;;;29.91;58.99;95395.00;5134293;27;20436;-56
2023/08/24 10:46:01;;;;;;;1.83;1.73;;;;;;;30.15;57.99;95416.09;5134239;27;20434;-56
2023/08/24 10:48:31;;;;;;;0.90;0.87;;;;;;;30.46;57.28;95430.94;5133360;27;20521;-57
2023/08/24 10:51:27;;;;;;;2.10;1.20;;;;;;;30.57;55.74;95423.47;5133849;27;20768;-57
2023/08/24 10:53:57;;;;;;;1.03;1.00;;;;;;;31.32;53.52;95414.59;5067608;28;20875;-56
2023/08/24 10:56:38;;;;;;;1.37;1.07;;;;;;;32.47;51.37;95414.16;5130655;27;20470;-55
2023/08/24 10:59:16;;;;;;;0.87;0.87;;;;;;;33.55;46.19;95407.78;5134057;27;20785;-53
2023/08/24 11:01:56;;;;;;;0.60;0.60;;;;;;;33.80;45.02;95397.19;5133687;27;20478;-53
2023/08/24 11:04:25;;;;;;;0.60;0.50;;;;;;;34.15;42.60;95335.38;5132921;27;20481;-53
2023/08/24 11:06:55;;;;;;;1.10;0.83;;;;;;;35.98;40.21;95388.59;5133689;27;20441;-54
2023/08/24 11:09:24;;;;;;;1.07;1.07;;;;;;;36.15;38.82;95337.78;5133267;27;20528;-59
2023/08/24 11:12:01;;;;;;;0.87;0.63;;;;;;;36.60;39.36;95376.44;5134192;27;20433;-60
2023/08/24 11:14:30;;;;;;;0.80;0.80;;;;;;;35.91;38.38;95358.44;5133414;27;20438;-60
2023/08/24 11:17:02;;;;;;;0.60;0.47;;;;;;;36.45;38.44;95314.47;5133821;27;20990;-58
2023/08/24 11:19:31;;;;;;;3.50;1.03;;;;;;;36.50;37.73;95346.34;5132215;27;20431;-59
2023/08/24 11:22:00;;;;;;;0.50;0.50;;;;;;;36.16;37.58;95342.06;5133189;27;20674;-60
2023/08/24 11:24:29;;;;;;;0.73;0.73;;;;;;;36.97;36.37;95335.53;5133231;27;20669;-59
2023/08/24 11:27:02;;;;;;;0.77;0.70;;;;;;;37.62;36.11;95330.44;5133651;27;20297;-58
2023/08/24 11:29:30;;;;;;;0.67;0.63;;;;;;;37.35;35.70;95333.59;5133478;27;20222;-58
2023/08/24 11:31:59;;;;;;;0.70;0.70;;;;;;;37.97;36.83;95332.06;5133644;27;20595;-58
2023/08/24 11:34:29;;;;;;;0.88;0.88;;;;;;;38.73;36.29;95325.09;5133720;27;20278;-58
2023/08/24 11:36:57;;;;;;;1.00;0.75;;;;;;;38.72;35.02;95317.19;5132658;27;20192;-59
2023/08/24 11:39:31;;;;;;;0.77;0.77;;;;;;;39.02;36.19;95313.72;5133295;27;20733;-59
2023/08/24 11:42:02;;;;;;;0.80;0.80;;;;;;;38.62;34.18;95312.81;5132824;27;20259;-59
2023/08/24 11:44:45;;;;;;;6.95;0.75;;;;;;;38.83;34.17;95295.44;5132658;27;20197;-58
2023/08/24 11:47:13;;;;;;;1.05;0.57;;;;;;;38.51;35.09;95313.19;5132966;27;20203;-59